Time;durP1;ratioP1;P1;durP2;ratioP2;P2;SDS_P1;SDS_P2;PMS_P1;PMS_P2;Temp;Humidity;BMP_temperature;BMP_pressure;BME280_temperature;BME280_humidity;BME280_pressure;Samples;Min_cycle;Max_cycle;Signal;HPM_P1;HPM_P2
2022/01/10 00:00:23;;;;;;;6.72;6.03;;;;;;;;;;5115442;27;24423;-58
2022/01/10 00:02:51;;;;;;;9.68;6.22;;;;;;;;;;5119960;27;24428;-58
2022/01/10 00:05:16;;;;;;;7.47;6.20;;;;;;;;;;5124239;27;24582;-59
2022/01/10 00:07:41;;;;;;;7.97;6.50;;;;;;;;;;5124097;27;24517;-58
2022/01/10 00:10:07;;;;;;;6.40;5.80;;;;;;;;;;5122307;27;24413;-63
2022/01/10 00:12:33;;;;;;;7.95;6.28;;;;;;;;;;5122471;27;25088;-58
2022/01/10 00:14:58;;;;;;;8.73;6.28;;;;;;;;;;5122968;27;24417;-58
2022/01/10 00:17:23;;;;;;;7.20;5.40;;;;;;;;;;5122428;27;24472;-59
2022/01/10 00:19:48;;;;;;;6.90;6.28;;;;;;;;;;5104946;27;24426;-59
2022/01/10 00:22:14;;;;;;;8.33;5.80;;;;;;;;;;5115024;27;24409;-59
2022/01/10 00:24:39;;;;;;;5.82;5.15;;;;;;;;;;5123949;27;24724;-58
2022/01/10 00:27:04;;;;;;;7.27;6.40;;;;;;;;;;5122181;27;24441;-59
2022/01/10 00:29:30;;;;;;;6.77;6.07;;;;;;;;;;5120181;27;24508;-58
2022/01/10 00:31:57;;;;;;;5.70;5.10;;;;;;;;;;5120382;27;24428;-58
2022/01/10 00:34:22;;;;;;;6.57;5.50;;;;;;;;;;5123594;27;24420;-58
2022/01/10 00:36:47;;;;;;;5.63;5.13;;;;;;;;;;5121890;27;24441;-59
2022/01/10 00:39:12;;;;;;;8.98;5.55;;;;;;;;;;5124103;27;25128;-59
2022/01/10 00:41:37;;;;;;;6.37;5.50;;;;;;;;;;5122899;27;24424;-59
2022/01/10 00:44:04;;;;;;;5.60;5.10;;;;;;;;;;5117629;27;24428;-58
2022/01/10 00:46:29;;;;;;;6.55;5.60;;;;;;;;;;5121642;27;24520;-59
2022/01/10 00:48:55;;;;;;;5.40;4.90;;;;;;;;;;5116945;27;24501;-59
2022/01/10 00:51:20;;;;;;;7.82;5.65;;;;;;;;;;5123063;27;24432;-58
2022/01/10 00:53:48;;;;;;;6.23;5.50;;;;;;;;;;5123929;27;24424;-58
2022/01/10 00:56:13;;;;;;;6.35;5.30;;;;;;;;;;5107252;27;24425;-58
2022/01/10 00:58:38;;;;;;;6.60;5.50;;;;;;;;;;5119208;27;24549;-59
2022/01/10 01:01:04;;;;;;;6.80;5.73;;;;;;;;;;5124080;27;24413;-59
2022/01/10 01:03:29;;;;;;;7.22;6.30;;;;;;;;;;5123412;27;24558;-58
2022/01/10 01:05:54;;;;;;;8.30;6.50;;;;;;;;;;5121627;27;24530;-59
2022/01/10 01:08:19;;;;;;;6.60;5.90;;;;;;;;;;5113981;27;24413;-59
2022/01/10 01:19:02;;;;;;;8.20;6.10;;;;;;;;;;5122830;27;24565;-59
2022/01/10 01:24:06;;;;;;;6.47;5.88;;;;;;;;;;5118914;27;24461;-59
2022/01/10 01:26:40;;;;;;;5.88;5.28;;;;;;;;;;5122593;27;25035;-59
2022/01/10 01:29:06;;;;;;;8.30;6.18;;;;;;;;;;5119244;27;24416;-59
2022/01/10 01:31:31;;;;;;;7.57;5.97;;;;;;;;;;5122677;27;24624;-59
2022/01/10 01:33:56;;;;;;;6.37;5.63;;;;;;;;;;5121804;27;24448;-59
2022/01/10 01:36:24;;;;;;;8.05;5.97;;;;;;;;;;5120437;27;24430;-59
2022/01/10 01:38:50;;;;;;;6.90;5.80;;;;;;;;;;5123125;27;25206;-59
2022/01/10 01:43:44;;;;;;;7.60;5.82;;;;;;;;;;5122995;28;24405;-60
2022/01/10 01:46:09;;;;;;;9.70;6.40;;;;;;;;;;5121010;28;25019;-59
2022/01/10 01:48:34;;;;;;;8.50;6.60;;;;;;;;;;5122534;28;24942;-60
2022/01/10 01:51:00;;;;;;;7.30;6.53;;;;;;;;;;5121770;28;24469;-58
2022/01/10 01:53:25;;;;;;;6.83;5.90;;;;;;;;;;5123084;28;25160;-60
2022/01/10 01:55:50;;;;;;;7.18;6.15;;;;;;;;;;5117997;28;24430;-58
2022/01/10 01:58:15;;;;;;;8.37;6.80;;;;;;;;;;5116037;28;24518;-58
2022/01/10 02:00:41;;;;;;;6.80;6.20;;;;;;;;;;5119067;28;24424;-58
2022/01/10 02:03:06;;;;;;;8.90;6.22;;;;;;;;;;5122307;28;24470;-59
2022/01/10 02:05:31;;;;;;;8.13;6.30;;;;;;;;;;5122079;27;24993;-59
2022/01/10 02:07:56;;;;;;;8.15;6.60;;;;;;;;;;5127163;27;24459;-58
2022/01/10 02:10:21;;;;;;;7.47;6.53;;;;;;;;;;5123028;27;24504;-59
2022/01/10 02:12:46;;;;;;;7.45;6.65;;;;;;;;;;5124980;27;24580;-58
2022/01/10 02:15:33;;;;;;;6.70;6.00;;;;;;;;;;5124958;27;24502;-59
2022/01/10 02:18:00;;;;;;;8.63;6.20;;;;;;;;;;5124063;27;24432;-58
2022/01/10 02:20:27;;;;;;;7.93;6.22;;;;;;;;;;5125071;27;24898;-59
2022/01/10 02:22:52;;;;;;;7.88;7.07;;;;;;;;;;5122914;27;24481;-59
2022/01/10 02:25:17;;;;;;;8.18;6.75;;;;;;;;;;5122482;27;24409;-58
2022/01/10 02:27:42;;;;;;;7.30;6.00;;;;;;;;;;5124630;27;24431;-58
2022/01/10 02:30:08;;;;;;;8.53;6.20;;;;;;;;;;5126675;27;24462;-58
2022/01/10 02:32:34;;;;;;;9.07;6.90;;;;;;;;;;5126149;27;24437;-58
2022/01/10 02:34:59;;;;;;;7.60;6.53;;;;;;;;;;5124279;27;25282;-58
2022/01/10 02:37:29;;;;;;;9.52;7.70;;;;;;;;;;5124709;27;24482;-58
2022/01/10 02:39:54;;;;;;;9.35;6.60;;;;;;;;;;5121635;27;25058;-58
2022/01/10 02:42:19;;;;;;;8.18;6.32;;;;;;;;;;5121002;27;24462;-58
2022/01/10 02:44:45;;;;;;;9.25;6.20;;;;;;;;;;5122222;27;25257;-58
2022/01/10 02:47:10;;;;;;;8.18;6.40;;;;;;;;;;5125126;27;24412;-58
2022/01/10 02:49:35;;;;;;;8.90;6.60;;;;;;;;;;5125980;27;24451;-57
2022/01/10 02:52:02;;;;;;;7.80;7.00;;;;;;;;;;5124778;27;24424;-58
2022/01/10 02:54:27;;;;;;;9.40;6.90;;;;;;;;;;5121526;27;24401;-59
2022/01/10 02:56:53;;;;;;;9.10;7.20;;;;;;;;;;5120261;27;24412;-59
2022/01/10 02:59:19;;;;;;;8.45;6.53;;;;;;;;;;5120351;27;24420;-58
2022/01/10 03:01:44;;;;;;;8.32;7.10;;;;;;;;;;5123810;27;24421;-59
2022/01/10 03:04:10;;;;;;;9.03;6.70;;;;;;;;;;5124394;27;24417;-58
2022/01/10 03:06:36;;;;;;;8.63;6.90;;;;;;;;;;5124896;27;25071;-58
2022/01/10 03:09:05;;;;;;;9.65;7.20;;;;;;;;;;5124452;27;24989;-59
2022/01/10 03:11:31;;;;;;;7.68;6.88;;;;;;;;;;5125929;27;24663;-58
2022/01/10 03:13:56;;;;;;;6.55;5.95;;;;;;;;;;5118926;27;24809;-58
2022/01/10 03:16:21;;;;;;;7.88;6.78;;;;;;;;;;5121300;27;25027;-58
2022/01/10 03:18:46;;;;;;;9.95;7.30;;;;;;;;;;5120799;27;24409;-59
2022/01/10 03:21:12;;;;;;;7.78;5.95;;;;;;;;;;5123302;27;24409;-59
2022/01/10 03:23:37;;;;;;;7.40;6.70;;;;;;;;;;5123672;27;24417;-59
2022/01/10 03:26:02;;;;;;;8.13;6.75;;;;;;;;;;5122249;27;24405;-58
2022/01/10 03:28:27;;;;;;;9.55;7.72;;;;;;;;;;5125913;27;24420;-58
2022/01/10 03:30:52;;;;;;;8.77;7.03;;;;;;;;;;5124547;27;24511;-58
2022/01/10 03:33:17;;;;;;;7.80;6.60;;;;;;;;;;5123753;27;24998;-58
2022/01/10 03:35:43;;;;;;;8.10;7.30;;;;;;;;;;5120778;27;24408;-58
2022/01/10 03:38:08;;;;;;;8.33;7.40;;;;;;;;;;5122818;27;25008;-59
2022/01/10 03:40:33;;;;;;;10.70;7.70;;;;;;;;;;5126007;27;24488;-58
2022/01/10 03:42:58;;;;;;;7.23;6.53;;;;;;;;;;5123432;27;24456;-58
2022/01/10 03:45:23;;;;;;;8.17;6.90;;;;;;;;;;5124685;27;25016;-58
2022/01/10 03:47:48;;;;;;;8.03;7.00;;;;;;;;;;5121596;27;24489;-59
2022/01/10 03:50:14;;;;;;;9.57;7.87;;;;;;;;;;5119657;27;24779;-59
2022/01/10 03:52:41;;;;;;;8.90;6.90;;;;;;;;;;5122757;27;24985;-63
2022/01/10 03:55:06;;;;;;;8.60;6.38;;;;;;;;;;5123386;27;24413;-58
2022/01/10 03:57:31;;;;;;;8.43;7.28;;;;;;;;;;5124740;27;24460;-59
2022/01/10 03:59:56;;;;;;;9.50;7.00;;;;;;;;;;5123709;27;24405;-58
2022/01/10 04:02:24;;;;;;;9.10;7.45;;;;;;;;;;5119004;27;24986;-59
2022/01/10 04:04:49;;;;;;;8.47;7.50;;;;;;;;;;5120910;27;24473;-58
2022/01/10 04:07:16;;;;;;;7.60;6.80;;;;;;;;;;5119016;27;24425;-58
2022/01/10 04:09:42;;;;;;;7.60;6.80;;;;;;;;;;5123839;27;24417;-58
2022/01/10 04:12:07;;;;;;;8.23;7.43;;;;;;;;;;5123310;27;25012;-58
2022/01/10 04:14:32;;;;;;;11.43;7.90;;;;;;;;;;5124014;27;24774;-59
2022/01/10 04:16:57;;;;;;;9.37;7.27;;;;;;;;;;5121032;27;24980;-59
2022/01/10 04:19:22;;;;;;;8.75;7.53;;;;;;;;;;5119521;27;24420;-59
2022/01/10 04:21:48;;;;;;;8.02;7.22;;;;;;;;;;5123395;27;24482;-57
2022/01/10 04:24:13;;;;;;;9.97;7.00;;;;;;;;;;5122009;27;25459;-58
2022/01/10 04:26:38;;;;;;;9.90;7.70;;;;;;;;;;5120908;27;24457;-59
2022/01/10 04:29:03;;;;;;;8.40;7.45;;;;;;;;;;5116956;27;24417;-58
2022/01/10 04:31:28;;;;;;;8.00;7.20;;;;;;;;;;5120033;27;24436;-59
2022/01/10 04:33:53;;;;;;;8.77;6.90;;;;;;;;;;5122402;27;24465;-59
2022/01/10 04:36:19;;;;;;;7.90;7.10;;;;;;;;;;5123667;27;25017;-58
2022/01/10 04:38:44;;;;;;;8.57;7.40;;;;;;;;;;5121581;27;24428;-58
2022/01/10 04:41:09;;;;;;;9.80;7.30;;;;;;;;;;5118629;27;24456;-57
2022/01/10 04:43:36;;;;;;;9.30;7.60;;;;;;;;;;5122650;27;24451;-58
2022/01/10 04:46:01;;;;;;;7.95;7.10;;;;;;;;;;5121372;27;24413;-59
2022/01/10 04:48:26;;;;;;;9.10;7.90;;;;;;;;;;5124178;27;24419;-58
2022/01/10 04:53:35;;;;;;;7.70;6.90;;;;;;;;;;5121693;27;24578;-57
2022/01/10 04:56:00;;;;;;;7.97;6.50;;;;;;;;;;5120400;27;24508;-57
2022/01/10 04:58:26;;;;;;;8.20;6.93;;;;;;;;;;5123590;27;24767;-57
2022/01/10 05:00:53;;;;;;;9.05;6.60;;;;;;;;;;5119625;27;24405;-58
2022/01/10 05:03:18;;;;;;;10.35;7.78;;;;;;;;;;5119421;27;24417;-59
2022/01/10 05:05:44;;;;;;;9.33;7.27;;;;;;;;;;5121594;27;24481;-59
2022/01/10 05:08:10;;;;;;;8.40;6.70;;;;;;;;;;5123907;27;25025;-59
2022/01/10 05:10:35;;;;;;;8.30;6.90;;;;;;;;;;5123194;27;24955;-59
2022/01/10 05:13:00;;;;;;;8.27;7.37;;;;;;;;;;5109364;27;25033;-59
2022/01/10 05:15:25;;;;;;;8.27;6.82;;;;;;;;;;5118283;27;24761;-59
2022/01/10 05:17:50;;;;;;;9.88;7.50;;;;;;;;;;5118486;27;24408;-58
2022/01/10 05:20:15;;;;;;;10.52;8.15;;;;;;;;;;5122895;27;24819;-58
2022/01/10 05:22:40;;;;;;;8.48;7.43;;;;;;;;;;5111255;27;25036;-58
2022/01/10 05:25:06;;;;;;;8.60;7.70;;;;;;;;;;5112339;27;24476;-59
2022/01/10 05:27:31;;;;;;;11.80;8.90;;;;;;;;;;5121277;27;24427;-58
2022/01/10 05:29:56;;;;;;;10.50;7.80;;;;;;;;;;5121365;27;24419;-58
2022/01/10 05:32:21;;;;;;;10.20;8.17;;;;;;;;;;5120637;27;25035;-58
2022/01/10 05:34:46;;;;;;;10.52;7.90;;;;;;;;;;5113021;27;25205;-59
2022/01/10 05:37:12;;;;;;;9.38;8.20;;;;;;;;;;5101318;27;24445;-59
2022/01/10 05:39:37;;;;;;;12.60;8.40;;;;;;;;;;5105018;27;24478;-59
2022/01/10 05:42:02;;;;;;;12.50;8.67;;;;;;;;;;5118142;27;24409;-59
2022/01/10 05:44:28;;;;;;;9.73;8.73;;;;;;;;;;5115776;27;24413;-59
2022/01/10 05:46:53;;;;;;;10.43;7.83;;;;;;;;;;5113318;28;24962;-58
2022/01/10 05:49:25;;;;;;;11.80;8.70;;;;;;;;;;5117756;28;24461;-58
2022/01/10 05:51:50;;;;;;;11.98;8.60;;;;;;;;;;5116044;28;24424;-60
2022/01/10 05:54:15;;;;;;;8.60;7.20;;;;;;;;;;5100826;28;24907;-58
2022/01/10 05:56:40;;;;;;;9.90;8.32;;;;;;;;;;5107240;28;24497;-58
2022/01/10 05:59:05;;;;;;;11.90;9.20;;;;;;;;;;5103484;28;24508;-59
2022/01/10 06:01:31;;;;;;;9.35;8.18;;;;;;;;;;5104556;28;24967;-58
2022/01/10 06:03:56;;;;;;;11.87;8.90;;;;;;;;;;5111457;28;24432;-58
2022/01/10 06:06:21;;;;;;;10.67;9.10;;;;;;;;;;5116676;28;24405;-58
2022/01/10 06:08:46;;;;;;;10.80;9.03;;;;;;;;;;5113058;28;24437;-58
2022/01/10 06:11:11;;;;;;;9.93;8.30;;;;;;;;;;5107669;27;24435;-58
2022/01/10 06:13:41;;;;;;;12.50;9.90;;;;;;;;;;5114107;28;25160;-58
2022/01/10 06:16:06;;;;;;;10.77;9.00;;;;;;;;;;5115427;28;24475;-57
2022/01/10 06:18:31;;;;;;;13.63;9.50;;;;;;;;;;5117009;28;25019;-58
2022/01/10 06:20:56;;;;;;;10.07;8.57;;;;;;;;;;5119734;28;24501;-59
2022/01/10 06:23:22;;;;;;;12.83;8.83;;;;;;;;;;5112702;27;24511;-59
2022/01/10 06:25:47;;;;;;;10.57;9.07;;;;;;;;;;5111697;28;25250;-58
2022/01/10 06:28:12;;;;;;;12.17;8.90;;;;;;;;;;5121866;28;24425;-59
2022/01/10 06:30:37;;;;;;;10.33;9.00;;;;;;;;;;5123071;28;24523;-59
2022/01/10 06:33:03;;;;;;;11.47;9.47;;;;;;;;;;5121043;28;24425;-57
2022/01/10 06:35:28;;;;;;;12.90;9.60;;;;;;;;;;5120635;28;24473;-57
2022/01/10 06:37:54;;;;;;;11.63;9.97;;;;;;;;;;5119029;28;24429;-57
2022/01/10 06:40:19;;;;;;;12.27;9.77;;;;;;;;;;5118481;28;25049;-57
2022/01/10 06:42:44;;;;;;;10.00;8.90;;;;;;;;;;5120830;28;24478;-57
2022/01/10 06:45:10;;;;;;;11.30;9.00;;;;;;;;;;5123790;28;24369;-58
2022/01/10 06:47:35;;;;;;;14.60;9.30;;;;;;;;;;5122529;28;24870;-57
2022/01/10 06:50:00;;;;;;;9.80;8.00;;;;;;;;;;5118630;28;24966;-58
2022/01/10 06:52:26;;;;;;;12.07;9.37;;;;;;;;;;5116190;27;24417;-57
2022/01/10 06:54:51;;;;;;;12.88;9.65;;;;;;;;;;5116983;27;24457;-58
2022/01/10 06:57:16;;;;;;;12.90;9.13;;;;;;;;;;5124580;27;24504;-57
2022/01/10 06:59:41;;;;;;;14.23;10.32;;;;;;;;;;5123639;27;24498;-57
2022/01/10 07:02:06;;;;;;;10.63;8.60;;;;;;;;;;5122154;27;24562;-58
2022/01/10 07:04:32;;;;;;;9.98;8.27;;;;;;;;;;5122568;27;24409;-58
2022/01/10 07:06:57;;;;;;;10.93;8.80;;;;;;;;;;5121949;27;24414;-58
2022/01/10 07:09:23;;;;;;;9.93;8.87;;;;;;;;;;5121389;27;24505;-58
2022/01/10 07:11:48;;;;;;;11.00;8.82;;;;;;;;;;5123952;27;25057;-57
2022/01/10 07:14:14;;;;;;;11.37;9.30;;;;;;;;;;5122597;27;25092;-58
2022/01/10 07:16:40;;;;;;;11.68;10.20;;;;;;;;;;5121680;27;24409;-58
2022/01/10 07:19:06;;;;;;;14.77;11.37;;;;;;;;;;5120149;27;25028;-58
2022/01/10 07:21:31;;;;;;;13.40;9.80;;;;;;;;;;5123037;27;24801;-58
2022/01/10 07:23:56;;;;;;;13.33;10.00;;;;;;;;;;5118219;27;24427;-58
2022/01/10 07:26:22;;;;;;;12.95;10.77;;;;;;;;;;5118617;27;24420;-58
2022/01/10 07:28:48;;;;;;;16.80;11.65;;;;;;;;;;5122733;27;24421;-58
2022/01/10 07:31:13;;;;;;;14.65;11.50;;;;;;;;;;5125549;27;24515;-58
2022/01/10 07:33:38;;;;;;;15.27;10.30;;;;;;;;;;5125244;27;24474;-58
2022/01/10 07:36:04;;;;;;;13.80;11.20;;;;;;;;;;5117364;27;24409;-57
2022/01/10 07:38:35;;;;;;;11.93;10.20;;;;;;;;;;5119317;27;24775;-58
2022/01/10 07:41:00;;;;;;;16.63;12.85;;;;;;;;;;5119054;27;24556;-58
2022/01/10 07:43:25;;;;;;;14.23;10.73;;;;;;;;;;5123965;27;24420;-57
2022/01/10 07:45:50;;;;;;;16.55;11.77;;;;;;;;;;5123951;27;24420;-57
2022/01/10 07:48:17;;;;;;;16.57;11.37;;;;;;;;;;5122001;27;24401;-57
2022/01/10 07:50:42;;;;;;;15.27;11.23;;;;;;;;;;5125355;27;24508;-57
2022/01/10 07:53:07;;;;;;;15.43;12.30;;;;;;;;;;5119853;27;24528;-58
2022/01/10 07:55:33;;;;;;;19.00;13.50;;;;;;;;;;5120585;27;24804;-58
2022/01/10 07:57:58;;;;;;;20.85;13.35;;;;;;;;;;5122816;27;24918;-57
2022/01/10 08:00:23;;;;;;;16.93;12.60;;;;;;;;;;5124999;27;24508;-57
2022/01/10 08:02:48;;;;;;;20.30;12.90;;;;;;;;;;5125343;27;24812;-57
2022/01/10 08:05:13;;;;;;;17.63;12.27;;;;;;;;;;5121665;27;24397;-57
2022/01/10 08:07:39;;;;;;;19.60;12.90;;;;;;;;;;5119550;27;24442;-58
2022/01/10 08:10:04;;;;;;;20.17;13.10;;;;;;;;;;5121848;27;24990;-58
2022/01/10 08:12:30;;;;;;;18.02;11.82;;;;;;;;;;5124404;27;25061;-58
2022/01/10 08:14:55;;;;;;;21.70;14.17;;;;;;;;;;5123339;27;25008;-58
2022/01/10 08:17:20;;;;;;;18.30;12.13;;;;;;;;;;5120669;27;24865;-58
2022/01/10 08:19:45;;;;;;;15.07;12.30;;;;;;;;;;5121475;27;24519;-58
2022/01/10 08:22:11;;;;;;;18.27;13.90;;;;;;;;;;5124883;27;24397;-57
2022/01/10 08:24:36;;;;;;;19.93;14.30;;;;;;;;;;5125050;27;24412;-58
2022/01/10 08:27:01;;;;;;;20.17;13.87;;;;;;;;;;5122048;27;24409;-58
2022/01/10 08:29:26;;;;;;;16.23;12.23;;;;;;;;;;5120633;27;24453;-57
2022/01/10 08:31:51;;;;;;;16.90;13.33;;;;;;;;;;5118160;27;24434;-58
2022/01/10 08:34:17;;;;;;;17.93;13.40;;;;;;;;;;5125155;27;25305;-58
2022/01/10 08:36:42;;;;;;;20.13;14.13;;;;;;;;;;5123843;27;24516;-58
2022/01/10 08:39:08;;;;;;;22.73;14.70;;;;;;;;;;5122827;27;24500;-59
2022/01/10 08:41:35;;;;;;;19.27;13.47;;;;;;;;;;5120537;27;24950;-59
2022/01/10 08:44:00;;;;;;;22.55;15.38;;;;;;;;;;5120530;27;24459;-59
2022/01/10 08:46:26;;;;;;;18.80;13.70;;;;;;;;;;5124595;27;24819;-59
2022/01/10 08:48:51;;;;;;;17.20;12.53;;;;;;;;;;5122298;27;24413;-57
2022/01/10 08:51:16;;;;;;;20.23;14.60;;;;;;;;;;5124413;27;24404;-57
2022/01/10 08:53:42;;;;;;;19.73;14.10;;;;;;;;;;5124435;27;24428;-58
2022/01/10 08:56:07;;;;;;;19.00;14.20;;;;;;;;;;5118698;27;24578;-58
2022/01/10 08:58:32;;;;;;;19.75;13.70;;;;;;;;;;5118520;27;24950;-58
2022/01/10 09:01:03;;;;;;;23.20;15.00;;;;;;;;;;5122445;27;25377;-58
2022/01/10 09:03:28;;;;;;;29.70;17.00;;;;;;;;;;5120258;27;24428;-58
2022/01/10 09:05:55;;;;;;;21.63;15.77;;;;;;;;;;5122046;27;24409;-57
2022/01/10 09:08:21;;;;;;;20.70;15.10;;;;;;;;;;5123713;27;24767;-57
2022/01/10 09:10:46;;;;;;;23.45;15.75;;;;;;;;;;5124326;27;24401;-57
2022/01/10 09:13:11;;;;;;;23.67;15.60;;;;;;;;;;5121763;27;24497;-59
2022/01/10 09:15:37;;;;;;;20.08;15.68;;;;;;;;;;5119818;27;24443;-58
2022/01/10 09:18:02;;;;;;;20.02;14.00;;;;;;;;;;5118166;27;24989;-58
2022/01/10 09:20:29;;;;;;;24.70;16.30;;;;;;;;;;5123906;27;24433;-58
2022/01/10 09:22:54;;;;;;;23.35;15.57;;;;;;;;;;5122178;27;24517;-59
2022/01/10 09:25:19;;;;;;;17.43;13.13;;;;;;;;;;5122135;27;24970;-57
2022/01/10 09:27:44;;;;;;;23.50;15.33;;;;;;;;;;5123920;27;25237;-58
2022/01/10 09:30:10;;;;;;;23.88;14.73;;;;;;;;;;5117859;27;24457;-57
2022/01/10 09:32:35;;;;;;;24.70;15.10;;;;;;;;;;5120244;27;24997;-58
2022/01/10 09:35:00;;;;;;;22.60;14.60;;;;;;;;;;5121771;27;25029;-58
2022/01/10 09:37:26;;;;;;;23.40;15.27;;;;;;;;;;5123474;27;24416;-57
2022/01/10 09:39:51;;;;;;;18.60;14.43;;;;;;;;;;5121147;28;24953;-58
2022/01/10 09:42:16;;;;;;;20.90;15.27;;;;;;;;;;5118537;27;24792;-58
2022/01/10 09:44:42;;;;;;;22.20;15.63;;;;;;;;;;5119915;27;24922;-58
2022/01/10 09:47:07;;;;;;;18.70;15.00;;;;;;;;;;5123608;28;24410;-58
2022/01/10 09:49:32;;;;;;;20.70;15.10;;;;;;;;;;5123592;28;24865;-58
2022/01/10 09:51:57;;;;;;;21.93;15.60;;;;;;;;;;5120898;28;24448;-58
2022/01/10 09:54:22;;;;;;;18.87;14.17;;;;;;;;;;5119829;28;24486;-58
2022/01/10 09:56:49;;;;;;;22.33;15.88;;;;;;;;;;5121846;28;24759;-58
2022/01/10 09:59:15;;;;;;;20.08;15.23;;;;;;;;;;5123254;28;24404;-58
2022/01/10 10:01:40;;;;;;;20.70;14.10;;;;;;;;;;5123121;28;24484;-58
2022/01/10 10:04:05;;;;;;;19.80;14.63;;;;;;;;;;5117723;28;24978;-58
2022/01/10 10:06:31;;;;;;;20.70;14.93;;;;;;;;;;5118019;28;24836;-58
2022/01/10 10:09:00;;;;;;;19.33;14.43;;;;;;;;;;5117733;28;24793;-58
2022/01/10 10:11:39;;;;;;;26.02;16.45;;;;;;;;;;5122955;28;24942;-58
2022/01/10 10:14:05;;;;;;;22.67;15.88;;;;;;;;;;5121417;28;24705;-58
2022/01/10 10:16:31;;;;;;;20.00;14.50;;;;;;;;;;5119816;28;24385;-59
2022/01/10 10:18:56;;;;;;;26.43;16.67;;;;;;;;;;5119784;28;24728;-60
2022/01/10 10:21:21;;;;;;;21.98;15.85;;;;;;;;;;5119901;28;24397;-58
2022/01/10 10:23:48;;;;;;;24.67;17.85;;;;;;;;;;5121426;28;24928;-58
2022/01/10 10:26:21;;;;;;;22.52;15.75;;;;;;;;;;5123892;27;24520;-58
2022/01/10 10:28:46;;;;;;;24.33;15.77;;;;;;;;;;5127361;27;24400;-58
2022/01/10 10:31:12;;;;;;;22.63;15.47;;;;;;;;;;5124047;27;25137;-59
2022/01/10 10:33:46;;;;;;;25.80;15.88;;;;;;;;;;5123870;27;24497;-58
2022/01/10 10:36:11;;;;;;;22.13;15.10;;;;;;;;;;5121392;27;24498;-58
2022/01/10 10:38:36;;;;;;;22.52;15.13;;;;;;;;;;5126954;27;24916;-58
2022/01/10 10:41:03;;;;;;;24.03;16.63;;;;;;;;;;5124487;27;25091;-59
2022/01/10 10:43:31;;;;;;;22.23;15.70;;;;;;;;;;5125358;27;24760;-59
2022/01/10 10:45:59;;;;;;;22.65;15.95;;;;;;;;;;5121667;27;24430;-59
2022/01/10 10:48:24;;;;;;;22.45;16.10;;;;;;;;;;5122948;27;24408;-59
2022/01/10 10:50:50;;;;;;;20.88;14.90;;;;;;;;;;5124599;27;24405;-59
2022/01/10 10:53:15;;;;;;;21.37;15.07;;;;;;;;;;5126298;27;24409;-58
2022/01/10 10:55:41;;;;;;;23.53;15.17;;;;;;;;;;5126793;27;25163;-58
2022/01/10 10:58:07;;;;;;;22.60;15.23;;;;;;;;;;5122183;27;24760;-58
2022/01/10 11:00:33;;;;;;;26.85;15.95;;;;;;;;;;5120763;27;24444;-58
2022/01/10 11:02:58;;;;;;;21.00;15.27;;;;;;;;;;5121408;27;24487;-58
2022/01/10 11:05:23;;;;;;;22.15;14.52;;;;;;;;;;5126387;27;24874;-58
2022/01/10 11:07:49;;;;;;;22.73;14.40;;;;;;;;;;5126292;27;24462;-59
2022/01/10 11:10:14;;;;;;;29.70;16.33;;;;;;;;;;5123008;27;24395;-58
2022/01/10 11:12:41;;;;;;;18.70;14.17;;;;;;;;;;5121509;27;24590;-59
2022/01/10 11:15:07;;;;;;;25.40;16.53;;;;;;;;;;5123015;27;24943;-59
2022/01/10 11:17:32;;;;;;;25.77;15.38;;;;;;;;;;5126162;27;24933;-59
2022/01/10 11:20:09;;;;;;;21.48;15.20;;;;;;;;;;5123904;27;24460;-59
2022/01/10 11:22:38;;;;;;;20.85;14.90;;;;;;;;;;5122330;27;24389;-59
2022/01/10 11:25:04;;;;;;;20.20;14.60;;;;;;;;;;5124241;27;24974;-59
2022/01/10 11:27:30;;;;;;;19.08;14.50;;;;;;;;;;5126374;27;24397;-59
2022/01/10 11:29:57;;;;;;;19.60;14.23;;;;;;;;;;5123766;27;24420;-59
2022/01/10 11:32:42;;;;;;;15.93;13.20;;;;;;;;;;5123975;27;24437;-58
2022/01/10 11:35:07;;;;;;;19.35;14.20;;;;;;;;;;5119815;27;24423;-58
2022/01/10 11:37:33;;;;;;;15.53;12.20;;;;;;;;;;5119761;27;24421;-58
2022/01/10 11:39:58;;;;;;;19.23;14.90;;;;;;;;;;5125096;27;24424;-58
2022/01/10 11:42:23;;;;;;;15.95;13.07;;;;;;;;;;5125489;27;24500;-58
2022/01/10 11:45:08;;;;;;;17.00;12.40;;;;;;;;;;5124480;27;24492;-58
2022/01/10 11:47:53;;;;;;;13.57;11.30;;;;;;;;;;5119988;27;24408;-58
2022/01/10 11:50:26;;;;;;;15.77;12.05;;;;;;;;;;5121351;27;24433;-59
2022/01/10 11:52:55;;;;;;;18.00;12.93;;;;;;;;;;5122282;27;24561;-57
2022/01/10 11:55:30;;;;;;;16.58;11.90;;;;;;;;;;5125054;27;24466;-58
2022/01/10 11:58:01;;;;;;;16.20;12.60;;;;;;;;;;5121156;27;24489;-57
2022/01/10 12:00:34;;;;;;;17.05;12.35;;;;;;;;;;5120001;27;24401;-58
2022/01/10 12:02:59;;;;;;;14.40;11.60;;;;;;;;;;5119673;27;24408;-58
2022/01/10 12:05:24;;;;;;;13.07;10.30;;;;;;;;;;5125483;27;24974;-58
2022/01/10 12:07:51;;;;;;;12.98;10.57;;;;;;;;;;5122807;27;25022;-58
2022/01/10 12:10:17;;;;;;;15.93;11.95;;;;;;;;;;5124972;27;24417;-58
2022/01/10 12:12:42;;;;;;;15.07;10.80;;;;;;;;;;5124429;27;24436;-58
2022/01/10 12:15:07;;;;;;;15.27;11.67;;;;;;;;;;5119393;27;24481;-58
2022/01/10 12:17:35;;;;;;;15.47;11.27;;;;;;;;;;5121711;27;24408;-57
2022/01/10 12:20:02;;;;;;;11.90;9.88;;;;;;;;;;5123114;27;24391;-58
2022/01/10 12:22:27;;;;;;;15.17;10.20;;;;;;;;;;5124977;27;25065;-58
2022/01/10 12:24:52;;;;;;;13.77;9.87;;;;;;;;;;5120967;27;24512;-58
2022/01/10 12:27:18;;;;;;;14.73;10.70;;;;;;;;;;5122697;27;24556;-58
2022/01/10 12:29:43;;;;;;;13.80;10.57;;;;;;;;;;5124838;27;24397;-57
2022/01/10 12:32:11;;;;;;;13.70;11.20;;;;;;;;;;5122753;27;24443;-58
2022/01/10 12:34:38;;;;;;;16.60;11.02;;;;;;;;;;5122706;27;24481;-58
2022/01/10 12:37:04;;;;;;;10.70;9.10;;;;;;;;;;5118850;27;24493;-58
2022/01/10 12:39:30;;;;;;;11.40;8.80;;;;;;;;;;5120520;27;24404;-58
2022/01/10 12:41:58;;;;;;;13.25;9.40;;;;;;;;;;5122867;27;24389;-58
2022/01/10 12:44:24;;;;;;;13.35;8.40;;;;;;;;;;5124184;27;24481;-59
2022/01/10 12:46:51;;;;;;;11.07;8.70;;;;;;;;;;5121246;27;24504;-59
2022/01/10 12:49:16;;;;;;;9.50;8.33;;;;;;;;;;5118114;27;24405;-58
2022/01/10 12:52:00;;;;;;;12.43;9.70;;;;;;;;;;5119084;27;24950;-59
2022/01/10 12:54:26;;;;;;;14.97;9.87;;;;;;;;;;5124352;27;24753;-58
2022/01/10 12:56:51;;;;;;;12.00;9.82;;;;;;;;;;5123280;27;24405;-58
2022/01/10 12:59:20;;;;;;;12.20;9.73;;;;;;;;;;5120495;27;24392;-58
2022/01/10 13:01:45;;;;;;;12.75;9.07;;;;;;;;;;5120787;27;24471;-59
2022/01/10 13:04:11;;;;;;;21.20;10.97;;;;;;;;;;5120728;27;24394;-59
2022/01/10 13:06:38;;;;;;;13.80;10.00;;;;;;;;;;5119836;27;24501;-58
2022/01/10 13:09:04;;;;;;;39.00;13.80;;;;;;;;;;5123820;27;24385;-59
2022/01/10 13:11:33;;;;;;;37.97;13.05;;;;;;;;;;5123859;27;24401;-58
2022/01/10 13:14:06;;;;;;;16.55;9.52;;;;;;;;;;5120471;27;24440;-58
2022/01/10 13:16:31;;;;;;;10.57;8.00;;;;;;;;;;5117856;27;24409;-58
2022/01/10 13:19:00;;;;;;;11.17;7.90;;;;;;;;;;5122163;27;24546;-58
2022/01/10 13:21:40;;;;;;;7.90;7.10;;;;;;;;;;5123758;27;24504;-58
2022/01/10 13:24:06;;;;;;;12.07;7.30;;;;;;;;;;5121698;27;24486;-58
2022/01/10 13:26:31;;;;;;;10.95;8.40;;;;;;;;;;5123475;27;24463;-57
2022/01/10 13:28:56;;;;;;;13.40;8.18;;;;;;;;;;5118151;27;24409;-58
2022/01/10 13:31:33;;;;;;;10.80;8.35;;;;;;;;;;5119949;27;24397;-57
2022/01/10 13:33:58;;;;;;;12.10;8.00;;;;;;;;;;5123601;27;24546;-57
2022/01/10 13:36:23;;;;;;;10.00;7.10;;;;;;;;;;5123733;27;24500;-58
2022/01/10 13:38:48;;;;;;;11.43;7.30;;;;;;;;;;5122126;27;24689;-58
2022/01/10 13:41:14;;;;;;;10.60;7.27;;;;;;;;;;5117848;27;24999;-59
2022/01/10 13:43:39;;;;;;;9.87;7.50;;;;;;;;;;5121683;27;24382;-59
2022/01/10 13:46:07;;;;;;;12.10;8.00;;;;;;;;;;5121569;27;24409;-59
2022/01/10 13:48:37;;;;;;;10.20;7.40;;;;;;;;;;5123178;28;24405;-58
2022/01/10 13:51:12;;;;;;;11.98;7.57;;;;;;;;;;5117768;28;24414;-58
2022/01/10 13:53:43;;;;;;;9.80;7.50;;;;;;;;;;5115339;28;25387;-57
2022/01/10 13:56:18;;;;;;;11.18;8.38;;;;;;;;;;5118701;28;24537;-58
2022/01/10 13:58:52;;;;;;;9.45;8.35;;;;;;;;;;5121001;28;25042;-58
2022/01/10 14:01:18;;;;;;;11.30;8.45;;;;;;;;;;5125094;27;24420;-57
2022/01/10 14:03:44;;;;;;;11.82;8.40;;;;;;;;;;5120643;27;24413;-58
2022/01/10 14:06:14;;;;;;;11.50;8.50;;;;;;;;;;5109698;27;24479;-57
2022/01/10 14:08:41;;;;;;;14.00;8.98;;;;;;;;;;5119344;27;24407;-58
2022/01/10 14:11:06;;;;;;;13.82;8.80;;;;;;;;;;5119602;27;24793;-57
2022/01/10 14:13:32;;;;;;;12.88;8.98;;;;;;;;;;5126389;27;24493;-57
2022/01/10 14:15:58;;;;;;;14.48;10.00;;;;;;;;;;5125071;27;24511;-57
2022/01/10 14:18:23;;;;;;;12.70;9.00;;;;;;;;;;5124470;27;24401;-57
2022/01/10 14:20:48;;;;;;;12.77;9.20;;;;;;;;;;5123004;27;24409;-58
2022/01/10 14:23:13;;;;;;;11.57;9.05;;;;;;;;;;5122952;27;24513;-57
2022/01/10 14:25:38;;;;;;;14.43;9.38;;;;;;;;;;5124672;27;24447;-58
2022/01/10 14:28:03;;;;;;;12.70;9.90;;;;;;;;;;5125101;27;24958;-56
2022/01/10 14:30:29;;;;;;;14.77;9.40;;;;;;;;;;5124428;27;24408;-58
2022/01/10 14:32:54;;;;;;;13.53;10.03;;;;;;;;;;5122681;27;24471;-58
2022/01/10 14:35:19;;;;;;;11.50;9.07;;;;;;;;;;5124466;27;25040;-59
2022/01/10 14:37:44;;;;;;;12.23;8.67;;;;;;;;;;5124190;27;24436;-59
2022/01/10 14:40:09;;;;;;;14.77;9.70;;;;;;;;;;5088614;27;24447;-58